sensor_id;sensor_type;location;lat;lon;timestamp;P1;durP1;ratioP1;P2;durP2;ratioP2
21122;SDS011;10719;48.130;11.630;2023-09-18T00:00:50;10.10;;;3.88;;
21122;SDS011;10719;48.130;11.630;2023-09-18T00:03:16;9.35;;;3.72;;
21122;SDS011;10719;48.130;11.630;2023-09-18T00:05:46;8.93;;;4.32;;
21122;SDS011;10719;48.130;11.630;2023-09-18T00:08:15;13.85;;;4.18;;
21122;SDS011;10719;48.130;11.630;2023-09-18T00:10:41;9.02;;;3.63;;
21122;SDS011;10719;48.130;11.630;2023-09-18T00:13:08;9.95;;;3.90;;
21122;SDS011;10719;48.130;11.630;2023-09-18T00:15:34;8.15;;;3.63;;
21122;SDS011;10719;48.130;11.630;2023-09-18T00:17:59;8.77;;;3.47;;
21122;SDS011;10719;48.130;11.630;2023-09-18T00:20:26;8.13;;;3.72;;
21122;SDS011;10719;48.130;11.630;2023-09-18T00:22:55;7.88;;;3.95;;
21122;SDS011;10719;48.130;11.630;2023-09-18T00:25:24;6.53;;;3.30;;
21122;SDS011;10719;48.130;11.630;2023-09-18T00:27:49;10.38;;;3.58;;
21122;SDS011;10719;48.130;11.630;2023-09-18T00:30:16;8.15;;;3.35;;
21122;SDS011;10719;48.130;11.630;2023-09-18T00:32:42;10.50;;;4.03;;
21122;SDS011;10719;48.130;11.630;2023-09-18T00:35:08;9.13;;;3.67;;
21122;SDS011;10719;48.130;11.630;2023-09-18T00:37:33;8.77;;;3.00;;
21122;SDS011;10719;48.130;11.630;2023-09-18T00:39:59;7.72;;;3.28;;
21122;SDS011;10719;48.130;11.630;2023-09-18T00:42:25;8.55;;;3.85;;
21122;SDS011;10719;48.130;11.630;2023-09-18T00:44:51;8.95;;;4.03;;
21122;SDS011;10719;48.130;11.630;2023-09-18T00:47:17;9.57;;;3.80;;
21122;SDS011;10719;48.130;11.630;2023-09-18T00:49:44;11.70;;;3.45;;
21122;SDS011;10719;48.130;11.630;2023-09-18T00:52:12;9.25;;;3.63;;
21122;SDS011;10719;48.130;11.630;2023-09-18T00:54:39;6.38;;;2.72;;
21122;SDS011;10719;48.130;11.630;2023-09-18T00:57:06;8.90;;;3.28;;
21122;SDS011;10719;48.130;11.630;2023-09-18T00:59:33;12.75;;;3.85;;
21122;SDS011;10719;48.130;11.630;2023-09-18T01:01:59;8.75;;;3.75;;
21122;SDS011;10719;48.130;11.630;2023-09-18T01:04:25;7.72;;;3.00;;
21122;SDS011;10719;48.130;11.630;2023-09-18T01:06:53;9.60;;;3.78;;
21122;SDS011;10719;48.130;11.630;2023-09-18T01:09:21;6.88;;;2.92;;
21122;SDS011;10719;48.130;11.630;2023-09-18T01:11:52;8.00;;;3.30;;
21122;SDS011;10719;48.130;11.630;2023-09-18T01:14:31;8.43;;;3.30;;
21122;SDS011;10719;48.130;11.630;2023-09-18T01:17:05;8.48;;;2.80;;
21122;SDS011;10719;48.130;11.630;2023-09-18T01:22:10;7.63;;;3.00;;
21122;SDS011;10719;48.130;11.630;2023-09-18T01:24:37;8.65;;;3.33;;
21122;SDS011;10719;48.130;11.630;2023-09-18T01:27:05;11.57;;;3.15;;
21122;SDS011;10719;48.130;11.630;2023-09-18T01:29:33;7.65;;;2.75;;
21122;SDS011;10719;48.130;11.630;2023-09-18T01:31:58;8.95;;;3.10;;
21122;SDS011;10719;48.130;11.630;2023-09-18T01:34:28;6.30;;;2.58;;
21122;SDS011;10719;48.130;11.630;2023-09-18T01:37:01;8.05;;;3.15;;
21122;SDS011;10719;48.130;11.630;2023-09-18T01:39:29;6.05;;;2.35;;
21122;SDS011;10719;48.130;11.630;2023-09-18T01:41:59;7.00;;;2.58;;
21122;SDS011;10719;48.130;11.630;2023-09-18T01:44:28;8.55;;;2.65;;
21122;SDS011;10719;48.130;11.630;2023-09-18T01:46:54;7.03;;;2.80;;
21122;SDS011;10719;48.130;11.630;2023-09-18T01:49:26;9.00;;;3.10;;
21122;SDS011;10719;48.130;11.630;2023-09-18T01:51:58;6.10;;;2.53;;
21122;SDS011;10719;48.130;11.630;2023-09-18T01:54:23;5.55;;;2.50;;
21122;SDS011;10719;48.130;11.630;2023-09-18T01:56:50;6.60;;;2.63;;
21122;SDS011;10719;48.130;11.630;2023-09-18T01:59:17;7.40;;;2.47;;
21122;SDS011;10719;48.130;11.630;2023-09-18T02:01:43;7.20;;;2.80;;
21122;SDS011;10719;48.130;11.630;2023-09-18T02:04:09;6.10;;;2.88;;
21122;SDS011;10719;48.130;11.630;2023-09-18T02:06:34;11.43;;;2.88;;
21122;SDS011;10719;48.130;11.630;2023-09-18T02:09:01;7.88;;;2.90;;
21122;SDS011;10719;48.130;11.630;2023-09-18T02:11:27;8.63;;;2.70;;
21122;SDS011;10719;48.130;11.630;2023-09-18T02:13:52;8.55;;;2.83;;
21122;SDS011;10719;48.130;11.630;2023-09-18T02:16:18;9.32;;;3.10;;
21122;SDS011;10719;48.130;11.630;2023-09-18T02:18:46;8.95;;;2.88;;
21122;SDS011;10719;48.130;11.630;2023-09-18T02:21:18;10.05;;;2.65;;
21122;SDS011;10719;48.130;11.630;2023-09-18T02:23:49;5.63;;;2.40;;
21122;SDS011;10719;48.130;11.630;2023-09-18T02:26:16;8.18;;;2.95;;
21122;SDS011;10719;48.130;11.630;2023-09-18T02:28:42;6.03;;;2.72;;
21122;SDS011;10719;48.130;11.630;2023-09-18T02:31:08;6.28;;;2.60;;
21122;SDS011;10719;48.130;11.630;2023-09-18T02:33:33;7.68;;;2.78;;
21122;SDS011;10719;48.130;11.630;2023-09-18T02:35:59;7.93;;;3.00;;
21122;SDS011;10719;48.130;11.630;2023-09-18T02:38:25;6.60;;;2.65;;
21122;SDS011;10719;48.130;11.630;2023-09-18T02:40:51;7.07;;;3.15;;
21122;SDS011;10719;48.130;11.630;2023-09-18T02:43:18;7.22;;;3.03;;
21122;SDS011;10719;48.130;11.630;2023-09-18T02:45:44;6.93;;;2.60;;
21122;SDS011;10719;48.130;11.630;2023-09-18T02:48:10;5.90;;;2.50;;
21122;SDS011;10719;48.130;11.630;2023-09-18T02:50:36;9.40;;;3.13;;
21122;SDS011;10719;48.130;11.630;2023-09-18T02:53:02;6.20;;;2.75;;
21122;SDS011;10719;48.130;11.630;2023-09-18T02:55:28;8.98;;;2.80;;
21122;SDS011;10719;48.130;11.630;2023-09-18T02:57:54;6.93;;;2.70;;
21122;SDS011;10719;48.130;11.630;2023-09-18T03:00:19;6.97;;;2.70;;
21122;SDS011;10719;48.130;11.630;2023-09-18T03:02:46;7.32;;;2.50;;
21122;SDS011;10719;48.130;11.630;2023-09-18T03:05:11;6.82;;;2.38;;
21122;SDS011;10719;48.130;11.630;2023-09-18T03:07:37;6.75;;;2.58;;
21122;SDS011;10719;48.130;11.630;2023-09-18T03:10:03;7.47;;;2.55;;
21122;SDS011;10719;48.130;11.630;2023-09-18T03:12:29;6.53;;;2.50;;
21122;SDS011;10719;48.130;11.630;2023-09-18T03:14:55;10.27;;;3.17;;
21122;SDS011;10719;48.130;11.630;2023-09-18T03:17:21;5.72;;;2.88;;
21122;SDS011;10719;48.130;11.630;2023-09-18T03:19:49;6.32;;;2.45;;
21122;SDS011;10719;48.130;11.630;2023-09-18T03:22:15;6.28;;;2.60;;
21122;SDS011;10719;48.130;11.630;2023-09-18T03:24:40;6.60;;;2.70;;
21122;SDS011;10719;48.130;11.630;2023-09-18T03:27:06;6.40;;;2.03;;
21122;SDS011;10719;48.130;11.630;2023-09-18T03:29:32;4.47;;;2.33;;
21122;SDS011;10719;48.130;11.630;2023-09-18T03:31:57;6.55;;;2.60;;
21122;SDS011;10719;48.130;11.630;2023-09-18T03:34:24;8.35;;;2.55;;
21122;SDS011;10719;48.130;11.630;2023-09-18T03:36:52;5.13;;;2.35;;
21122;SDS011;10719;48.130;11.630;2023-09-18T03:39:18;8.60;;;2.75;;
21122;SDS011;10719;48.130;11.630;2023-09-18T03:41:43;9.00;;;2.95;;
21122;SDS011;10719;48.130;11.630;2023-09-18T03:44:09;8.38;;;2.53;;
21122;SDS011;10719;48.130;11.630;2023-09-18T03:46:36;6.82;;;2.40;;
21122;SDS011;10719;48.130;11.630;2023-09-18T03:49:01;7.10;;;2.63;;
21122;SDS011;10719;48.130;11.630;2023-09-18T03:51:27;6.88;;;2.75;;
21122;SDS011;10719;48.130;11.630;2023-09-18T03:53:54;6.57;;;2.65;;
21122;SDS011;10719;48.130;11.630;2023-09-18T03:56:20;8.25;;;2.70;;
21122;SDS011;10719;48.130;11.630;2023-09-18T03:58:46;8.65;;;2.95;;
21122;SDS011;10719;48.130;11.630;2023-09-18T04:01:14;5.97;;;2.40;;
21122;SDS011;10719;48.130;11.630;2023-09-18T04:03:40;8.85;;;2.90;;
21122;SDS011;10719;48.130;11.630;2023-09-18T04:06:06;7.93;;;2.42;;
21122;SDS011;10719;48.130;11.630;2023-09-18T04:08:32;7.93;;;2.70;;
21122;SDS011;10719;48.130;11.630;2023-09-18T04:10:57;7.90;;;2.47;;
21122;SDS011;10719;48.130;11.630;2023-09-18T04:13:24;5.00;;;2.17;;
21122;SDS011;10719;48.130;11.630;2023-09-18T04:15:49;6.97;;;2.58;;
21122;SDS011;10719;48.130;11.630;2023-09-18T04:18:15;9.20;;;2.70;;
21122;SDS011;10719;48.130;11.630;2023-09-18T04:20:41;5.22;;;2.35;;
21122;SDS011;10719;48.130;11.630;2023-09-18T04:23:17;6.50;;;2.30;;
21122;SDS011;10719;48.130;11.630;2023-09-18T04:25:45;6.97;;;2.35;;
21122;SDS011;10719;48.130;11.630;2023-09-18T04:28:11;8.32;;;3.05;;
21122;SDS011;10719;48.130;11.630;2023-09-18T04:30:44;6.80;;;2.65;;
21122;SDS011;10719;48.130;11.630;2023-09-18T04:33:10;5.45;;;2.30;;
21122;SDS011;10719;48.130;11.630;2023-09-18T04:35:37;6.65;;;2.42;;
21122;SDS011;10719;48.130;11.630;2023-09-18T04:38:04;6.63;;;2.70;;
21122;SDS011;10719;48.130;11.630;2023-09-18T04:40:31;6.53;;;2.45;;
21122;SDS011;10719;48.130;11.630;2023-09-18T04:42:58;9.18;;;2.92;;
21122;SDS011;10719;48.130;11.630;2023-09-18T04:45:24;7.03;;;2.80;;
21122;SDS011;10719;48.130;11.630;2023-09-18T04:47:50;8.43;;;2.45;;
21122;SDS011;10719;48.130;11.630;2023-09-18T04:50:16;6.32;;;2.40;;
21122;SDS011;10719;48.130;11.630;2023-09-18T04:52:42;6.90;;;2.45;;
21122;SDS011;10719;48.130;11.630;2023-09-18T04:55:08;6.35;;;2.58;;
21122;SDS011;10719;48.130;11.630;2023-09-18T04:57:34;4.65;;;2.30;;
21122;SDS011;10719;48.130;11.630;2023-09-18T05:00:00;6.60;;;2.55;;
21122;SDS011;10719;48.130;11.630;2023-09-18T05:02:26;6.18;;;2.50;;
21122;SDS011;10719;48.130;11.630;2023-09-18T05:04:51;6.28;;;2.55;;
21122;SDS011;10719;48.130;11.630;2023-09-18T05:07:17;8.60;;;2.65;;
21122;SDS011;10719;48.130;11.630;2023-09-18T05:09:43;6.22;;;2.38;;
21122;SDS011;10719;48.130;11.630;2023-09-18T05:12:09;5.95;;;2.45;;
21122;SDS011;10719;48.130;11.630;2023-09-18T05:14:39;6.68;;;2.78;;
21122;SDS011;10719;48.130;11.630;2023-09-18T05:17:05;7.22;;;2.42;;
21122;SDS011;10719;48.130;11.630;2023-09-18T05:19:31;8.70;;;2.92;;
21122;SDS011;10719;48.130;11.630;2023-09-18T05:21:57;12.13;;;2.70;;
21122;SDS011;10719;48.130;11.630;2023-09-18T05:24:22;8.40;;;2.90;;
21122;SDS011;10719;48.130;11.630;2023-09-18T05:26:52;8.73;;;2.65;;
21122;SDS011;10719;48.130;11.630;2023-09-18T05:29:18;8.20;;;2.53;;
21122;SDS011;10719;48.130;11.630;2023-09-18T05:31:44;12.13;;;3.47;;
21122;SDS011;10719;48.130;11.630;2023-09-18T05:34:11;11.93;;;2.97;;
21122;SDS011;10719;48.130;11.630;2023-09-18T05:36:37;7.32;;;3.20;;
21122;SDS011;10719;48.130;11.630;2023-09-18T05:39:02;10.75;;;3.35;;
21122;SDS011;10719;48.130;11.630;2023-09-18T05:41:28;7.40;;;3.20;;
21122;SDS011;10719;48.130;11.630;2023-09-18T05:43:55;9.30;;;2.88;;
21122;SDS011;10719;48.130;11.630;2023-09-18T05:46:21;9.55;;;2.65;;
21122;SDS011;10719;48.130;11.630;2023-09-18T05:48:47;13.45;;;2.90;;
21122;SDS011;10719;48.130;11.630;2023-09-18T05:51:12;6.70;;;2.83;;
21122;SDS011;10719;48.130;11.630;2023-09-18T05:53:38;7.20;;;2.50;;
21122;SDS011;10719;48.130;11.630;2023-09-18T05:56:04;7.63;;;3.00;;
21122;SDS011;10719;48.130;11.630;2023-09-18T05:58:31;7.43;;;2.75;;
21122;SDS011;10719;48.130;11.630;2023-09-18T06:00:58;8.73;;;2.40;;
21122;SDS011;10719;48.130;11.630;2023-09-18T06:03:25;8.88;;;2.90;;
21122;SDS011;10719;48.130;11.630;2023-09-18T06:05:51;8.35;;;2.95;;
21122;SDS011;10719;48.130;11.630;2023-09-18T06:08:17;7.63;;;2.55;;
21122;SDS011;10719;48.130;11.630;2023-09-18T06:10:44;10.95;;;2.50;;
21122;SDS011;10719;48.130;11.630;2023-09-18T06:13:09;9.80;;;3.10;;
21122;SDS011;10719;48.130;11.630;2023-09-18T06:15:35;10.07;;;3.15;;
21122;SDS011;10719;48.130;11.630;2023-09-18T06:18:01;5.80;;;2.35;;
21122;SDS011;10719;48.130;11.630;2023-09-18T06:20:28;9.48;;;3.25;;
21122;SDS011;10719;48.130;11.630;2023-09-18T06:22:54;7.63;;;2.47;;
21122;SDS011;10719;48.130;11.630;2023-09-18T06:25:19;10.50;;;2.67;;
21122;SDS011;10719;48.130;11.630;2023-09-18T06:27:45;8.23;;;2.85;;
21122;SDS011;10719;48.130;11.630;2023-09-18T06:30:11;5.88;;;2.15;;
21122;SDS011;10719;48.130;11.630;2023-09-18T06:32:37;9.45;;;2.97;;
21122;SDS011;10719;48.130;11.630;2023-09-18T06:35:03;7.72;;;2.85;;
21122;SDS011;10719;48.130;11.630;2023-09-18T06:37:29;10.82;;;2.83;;
21122;SDS011;10719;48.130;11.630;2023-09-18T06:39:54;10.55;;;2.53;;
21122;SDS011;10719;48.130;11.630;2023-09-18T06:42:21;8.88;;;2.63;;
21122;SDS011;10719;48.130;11.630;2023-09-18T06:44:47;12.25;;;2.67;;
21122;SDS011;10719;48.130;11.630;2023-09-18T06:47:12;10.40;;;2.78;;
21122;SDS011;10719;48.130;11.630;2023-09-18T06:49:39;12.77;;;2.90;;
21122;SDS011;10719;48.130;11.630;2023-09-18T06:52:06;8.63;;;2.78;;
21122;SDS011;10719;48.130;11.630;2023-09-18T06:54:33;6.82;;;2.25;;
21122;SDS011;10719;48.130;11.630;2023-09-18T06:56:58;6.80;;;2.67;;
21122;SDS011;10719;48.130;11.630;2023-09-18T06:59:24;8.48;;;3.15;;
21122;SDS011;10719;48.130;11.630;2023-09-18T07:01:49;9.88;;;3.15;;
21122;SDS011;10719;48.130;11.630;2023-09-18T07:04:15;8.80;;;2.50;;
21122;SDS011;10719;48.130;11.630;2023-09-18T07:06:40;8.15;;;2.67;;
21122;SDS011;10719;48.130;11.630;2023-09-18T07:09:06;10.32;;;3.17;;
21122;SDS011;10719;48.130;11.630;2023-09-18T07:11:32;10.65;;;3.17;;
21122;SDS011;10719;48.130;11.630;2023-09-18T07:13:59;8.52;;;2.95;;
21122;SDS011;10719;48.130;11.630;2023-09-18T07:16:25;8.45;;;2.80;;
21122;SDS011;10719;48.130;11.630;2023-09-18T07:18:50;7.75;;;2.72;;
21122;SDS011;10719;48.130;11.630;2023-09-18T07:21:16;11.45;;;3.20;;
21122;SDS011;10719;48.130;11.630;2023-09-18T07:23:41;6.70;;;2.63;;
21122;SDS011;10719;48.130;11.630;2023-09-18T07:26:07;8.75;;;2.75;;
21122;SDS011;10719;48.130;11.630;2023-09-18T07:28:33;10.13;;;3.42;;
21122;SDS011;10719;48.130;11.630;2023-09-18T07:31:05;7.20;;;2.80;;
21122;SDS011;10719;48.130;11.630;2023-09-18T07:33:32;9.77;;;3.10;;
21122;SDS011;10719;48.130;11.630;2023-09-18T07:35:57;7.70;;;2.85;;
21122;SDS011;10719;48.130;11.630;2023-09-18T07:38:23;9.70;;;2.85;;
21122;SDS011;10719;48.130;11.630;2023-09-18T07:40:50;9.75;;;2.85;;
21122;SDS011;10719;48.130;11.630;2023-09-18T07:43:15;12.27;;;3.35;;
21122;SDS011;10719;48.130;11.630;2023-09-18T07:45:41;11.45;;;3.47;;
21122;SDS011;10719;48.130;11.630;2023-09-18T07:48:07;9.50;;;2.92;;
21122;SDS011;10719;48.130;11.630;2023-09-18T07:50:33;8.15;;;2.67;;
21122;SDS011;10719;48.130;11.630;2023-09-18T07:53:01;6.28;;;2.58;;
21122;SDS011;10719;48.130;11.630;2023-09-18T07:55:27;8.13;;;2.97;;
21122;SDS011;10719;48.130;11.630;2023-09-18T07:57:54;8.30;;;3.00;;
21122;SDS011;10719;48.130;11.630;2023-09-18T08:00:20;6.93;;;3.00;;
21122;SDS011;10719;48.130;11.630;2023-09-18T08:02:47;8.65;;;2.42;;
21122;SDS011;10719;48.130;11.630;2023-09-18T08:05:15;6.57;;;2.85;;
21122;SDS011;10719;48.130;11.630;2023-09-18T08:07:41;9.73;;;3.35;;
21122;SDS011;10719;48.130;11.630;2023-09-18T08:10:07;11.07;;;3.47;;
21122;SDS011;10719;48.130;11.630;2023-09-18T08:12:34;8.35;;;3.17;;
21122;SDS011;10719;48.130;11.630;2023-09-18T08:15:00;11.90;;;3.40;;
21122;SDS011;10719;48.130;11.630;2023-09-18T08:17:27;9.90;;;3.05;;
21122;SDS011;10719;48.130;11.630;2023-09-18T08:19:53;6.88;;;2.80;;
21122;SDS011;10719;48.130;11.630;2023-09-18T08:22:19;10.52;;;3.30;;
21122;SDS011;10719;48.130;11.630;2023-09-18T08:24:46;7.32;;;3.17;;
21122;SDS011;10719;48.130;11.630;2023-09-18T08:27:15;8.95;;;3.13;;
21122;SDS011;10719;48.130;11.630;2023-09-18T08:29:47;9.57;;;3.13;;
21122;SDS011;10719;48.130;11.630;2023-09-18T08:32:12;7.10;;;2.80;;
21122;SDS011;10719;48.130;11.630;2023-09-18T08:34:38;7.45;;;2.53;;
21122;SDS011;10719;48.130;11.630;2023-09-18T08:37:04;6.68;;;2.88;;
21122;SDS011;10719;48.130;11.630;2023-09-18T08:39:29;13.17;;;3.60;;
21122;SDS011;10719;48.130;11.630;2023-09-18T08:41:58;11.05;;;3.08;;
21122;SDS011;10719;48.130;11.630;2023-09-18T08:44:27;11.77;;;3.10;;
21122;SDS011;10719;48.130;11.630;2023-09-18T08:46:56;8.55;;;3.00;;
21122;SDS011;10719;48.130;11.630;2023-09-18T08:49:23;10.43;;;3.28;;
21122;SDS011;10719;48.130;11.630;2023-09-18T08:51:49;10.45;;;3.70;;
21122;SDS011;10719;48.130;11.630;2023-09-18T08:54:16;8.80;;;3.03;;
21122;SDS011;10719;48.130;11.630;2023-09-18T08:56:42;13.02;;;3.17;;
21122;SDS011;10719;48.130;11.630;2023-09-18T08:59:08;9.48;;;3.33;;
21122;SDS011;10719;48.130;11.630;2023-09-18T09:01:34;7.25;;;3.13;;
21122;SDS011;10719;48.130;11.630;2023-09-18T09:03:59;9.27;;;3.33;;
21122;SDS011;10719;48.130;11.630;2023-09-18T09:06:25;8.77;;;3.17;;
21122;SDS011;10719;48.130;11.630;2023-09-18T09:08:51;7.75;;;2.90;;
21122;SDS011;10719;48.130;11.630;2023-09-18T09:11:16;11.68;;;3.63;;
21122;SDS011;10719;48.130;11.630;2023-09-18T09:13:44;7.57;;;2.90;;
21122;SDS011;10719;48.130;11.630;2023-09-18T09:16:10;5.43;;;2.45;;
21122;SDS011;10719;48.130;11.630;2023-09-18T09:18:45;11.88;;;2.92;;
21122;SDS011;10719;48.130;11.630;2023-09-18T09:21:15;9.23;;;2.95;;
21122;SDS011;10719;48.130;11.630;2023-09-18T09:23:52;8.00;;;2.85;;
21122;SDS011;10719;48.130;11.630;2023-09-18T09:26:18;8.75;;;2.70;;
21122;SDS011;10719;48.130;11.630;2023-09-18T09:28:45;7.05;;;2.63;;
21122;SDS011;10719;48.130;11.630;2023-09-18T09:31:15;9.27;;;2.90;;
21122;SDS011;10719;48.130;11.630;2023-09-18T09:33:50;6.32;;;2.42;;
21122;SDS011;10719;48.130;11.630;2023-09-18T09:36:20;15.25;;;2.97;;
21122;SDS011;10719;48.130;11.630;2023-09-18T09:38:46;10.95;;;3.10;;
21122;SDS011;10719;48.130;11.630;2023-09-18T09:41:15;9.27;;;2.80;;
21122;SDS011;10719;48.130;11.630;2023-09-18T09:43:42;9.63;;;2.58;;
21122;SDS011;10719;48.130;11.630;2023-09-18T09:46:14;9.32;;;3.20;;
21122;SDS011;10719;48.130;11.630;2023-09-18T09:49:03;13.10;;;3.38;;
21122;SDS011;10719;48.130;11.630;2023-09-18T09:51:29;5.90;;;2.47;;
21122;SDS011;10719;48.130;11.630;2023-09-18T09:53:56;5.65;;;2.60;;
21122;SDS011;10719;48.130;11.630;2023-09-18T09:56:39;11.77;;;3.20;;
21122;SDS011;10719;48.130;11.630;2023-09-18T09:59:14;9.32;;;3.10;;
21122;SDS011;10719;48.130;11.630;2023-09-18T10:01:40;8.95;;;2.65;;
21122;SDS011;10719;48.130;11.630;2023-09-18T10:04:09;7.88;;;2.60;;
21122;SDS011;10719;48.130;11.630;2023-09-18T10:06:38;10.73;;;2.88;;
21122;SDS011;10719;48.130;11.630;2023-09-18T10:09:08;8.48;;;2.70;;
21122;SDS011;10719;48.130;11.630;2023-09-18T10:11:36;12.23;;;3.13;;
21122;SDS011;10719;48.130;11.630;2023-09-18T10:14:12;11.90;;;2.83;;
21122;SDS011;10719;48.130;11.630;2023-09-18T10:16:41;10.27;;;3.00;;
21122;SDS011;10719;48.130;11.630;2023-09-18T10:24:42;8.40;;;2.90;;
21122;SDS011;10719;48.130;11.630;2023-09-18T10:27:12;11.30;;;2.83;;
21122;SDS011;10719;48.130;11.630;2023-09-18T10:29:39;11.27;;;2.78;;
21122;SDS011;10719;48.130;11.630;2023-09-18T10:32:07;11.85;;;3.28;;
21122;SDS011;10719;48.130;11.630;2023-09-18T10:34:34;9.30;;;3.00;;
21122;SDS011;10719;48.130;11.630;2023-09-18T10:37:02;9.10;;;3.10;;
21122;SDS011;10719;48.130;11.630;2023-09-18T10:39:34;8.30;;;2.63;;
21122;SDS011;10719;48.130;11.630;2023-09-18T10:42:01;7.13;;;2.40;;
21122;SDS011;10719;48.130;11.630;2023-09-18T10:44:28;11.27;;;2.72;;
21122;SDS011;10719;48.130;11.630;2023-09-18T10:46:56;9.15;;;2.67;;
21122;SDS011;10719;48.130;11.630;2023-09-18T10:49:24;10.27;;;2.45;;
21122;SDS011;10719;48.130;11.630;2023-09-18T10:51:53;8.90;;;2.47;;
21122;SDS011;10719;48.130;11.630;2023-09-18T10:54:21;11.65;;;2.53;;
21122;SDS011;10719;48.130;11.630;2023-09-18T10:56:48;11.80;;;3.28;;
21122;SDS011;10719;48.130;11.630;2023-09-18T10:59:14;9.15;;;2.65;;
21122;SDS011;10719;48.130;11.630;2023-09-18T11:01:41;7.40;;;2.47;;
21122;SDS011;10719;48.130;11.630;2023-09-18T11:04:07;9.95;;;2.63;;
21122;SDS011;10719;48.130;11.630;2023-09-18T11:10:01;11.45;;;2.63;;
21122;SDS011;10719;48.130;11.630;2023-09-18T11:12:09;12.73;;;2.72;;
21122;SDS011;10719;48.130;11.630;2023-09-18T11:17:30;13.07;;;2.95;;
21122;SDS011;10719;48.130;11.630;2023-09-18T11:22:34;10.98;;;3.30;;
21122;SDS011;10719;48.130;11.630;2023-09-18T11:27:59;11.80;;;2.90;;
21122;SDS011;10719;48.130;11.630;2023-09-18T11:30:27;11.25;;;2.65;;
21122;SDS011;10719;48.130;11.630;2023-09-18T11:32:56;10.00;;;2.63;;
21122;SDS011;10719;48.130;11.630;2023-09-18T11:35:22;8.07;;;2.50;;
21122;SDS011;10719;48.130;11.630;2023-09-18T11:38:02;9.52;;;2.80;;
21122;SDS011;10719;48.130;11.630;2023-09-18T11:40:33;9.30;;;3.05;;
21122;SDS011;10719;48.130;11.630;2023-09-18T11:43:19;9.45;;;3.05;;
21122;SDS011;10719;48.130;11.630;2023-09-18T11:45:49;5.35;;;1.90;;
21122;SDS011;10719;48.130;11.630;2023-09-18T11:48:16;11.88;;;2.33;;
21122;SDS011;10719;48.130;11.630;2023-09-18T11:50:43;9.95;;;2.50;;
21122;SDS011;10719;48.130;11.630;2023-09-18T11:53:11;14.45;;;2.45;;
21122;SDS011;10719;48.130;11.630;2023-09-18T11:55:39;7.43;;;1.95;;
21122;SDS011;10719;48.130;11.630;2023-09-18T11:58:05;7.68;;;1.92;;
21122;SDS011;10719;48.130;11.630;2023-09-18T12:00:31;8.18;;;2.33;;
21122;SDS011;10719;48.130;11.630;2023-09-18T12:02:57;3.10;;;1.30;;
21122;SDS011;10719;48.130;11.630;2023-09-18T12:05:38;9.32;;;1.75;;
21122;SDS011;10719;48.130;11.630;2023-09-18T12:08:03;3.85;;;1.15;;
21122;SDS011;10719;48.130;11.630;2023-09-18T12:10:29;7.85;;;1.55;;
21122;SDS011;10719;48.130;11.630;2023-09-18T12:12:56;5.82;;;2.00;;
21122;SDS011;10719;48.130;11.630;2023-09-18T12:15:23;4.22;;;1.63;;
21122;SDS011;10719;48.130;11.630;2023-09-18T12:17:53;6.83;;;1.67;;
21122;SDS011;10719;48.130;11.630;2023-09-18T12:20:24;3.72;;;1.20;;
21122;SDS011;10719;48.130;11.630;2023-09-18T12:22:50;4.47;;;1.45;;
21122;SDS011;10719;48.130;11.630;2023-09-18T12:25:16;9.65;;;1.30;;
21122;SDS011;10719;48.130;11.630;2023-09-18T12:27:43;4.18;;;1.10;;
21122;SDS011;10719;48.130;11.630;2023-09-18T12:30:10;2.35;;;0.88;;
21122;SDS011;10719;48.130;11.630;2023-09-18T12:32:37;1.63;;;0.93;;
21122;SDS011;10719;48.130;11.630;2023-09-18T12:35:05;3.17;;;1.00;;
21122;SDS011;10719;48.130;11.630;2023-09-18T12:37:32;4.63;;;1.40;;
21122;SDS011;10719;48.130;11.630;2023-09-18T12:40:05;5.38;;;1.40;;
21122;SDS011;10719;48.130;11.630;2023-09-18T12:42:36;6.93;;;1.20;;
21122;SDS011;10719;48.130;11.630;2023-09-18T12:45:06;4.38;;;1.63;;
21122;SDS011;10719;48.130;11.630;2023-09-18T12:47:35;4.80;;;1.20;;
21122;SDS011;10719;48.130;11.630;2023-09-18T12:50:04;5.00;;;1.05;;
21122;SDS011;10719;48.130;11.630;2023-09-18T12:52:32;7.30;;;1.40;;
21122;SDS011;10719;48.130;11.630;2023-09-18T12:54:58;4.35;;;1.27;;
21122;SDS011;10719;48.130;11.630;2023-09-18T12:57:26;7.00;;;1.30;;
21122;SDS011;10719;48.130;11.630;2023-09-18T12:59:53;11.50;;;1.83;;
21122;SDS011;10719;48.130;11.630;2023-09-18T13:02:20;6.88;;;1.35;;
21122;SDS011;10719;48.130;11.630;2023-09-18T13:04:52;6.68;;;1.45;;
21122;SDS011;10719;48.130;11.630;2023-09-18T13:07:19;7.68;;;1.13;;
21122;SDS011;10719;48.130;11.630;2023-09-18T13:12:48;6.70;;;1.00;;
21122;SDS011;10719;48.130;11.630;2023-09-18T13:15:25;5.00;;;1.50;;
21122;SDS011;10719;48.130;11.630;2023-09-18T13:17:56;4.57;;;1.20;;
21122;SDS011;10719;48.130;11.630;2023-09-18T13:20:27;1.98;;;0.70;;
21122;SDS011;10719;48.130;11.630;2023-09-18T13:22:57;3.50;;;0.95;;
21122;SDS011;10719;48.130;11.630;2023-09-18T13:25:28;5.57;;;1.30;;
21122;SDS011;10719;48.130;11.630;2023-09-18T13:27:56;5.88;;;1.30;;
21122;SDS011;10719;48.130;11.630;2023-09-18T13:30:21;2.85;;;1.30;;
21122;SDS011;10719;48.130;11.630;2023-09-18T13:32:48;3.53;;;1.08;;
21122;SDS011;10719;48.130;11.630;2023-09-18T13:35:15;6.97;;;1.58;;
21122;SDS011;10719;48.130;11.630;2023-09-18T13:37:41;4.82;;;1.08;;
21122;SDS011;10719;48.130;11.630;2023-09-18T13:40:07;2.22;;;1.00;;
21122;SDS011;10719;48.130;11.630;2023-09-18T13:42:39;4.38;;;1.10;;
21122;SDS011;10719;48.130;11.630;2023-09-18T13:45:06;2.33;;;1.00;;
21122;SDS011;10719;48.130;11.630;2023-09-18T13:47:35;2.70;;;0.93;;
21122;SDS011;10719;48.130;11.630;2023-09-18T13:50:05;5.60;;;1.40;;
21122;SDS011;10719;48.130;11.630;2023-09-18T13:52:31;7.95;;;1.13;;
21122;SDS011;10719;48.130;11.630;2023-09-18T13:54:59;5.38;;;1.38;;
21122;SDS011;10719;48.130;11.630;2023-09-18T13:57:25;4.68;;;1.02;;
21122;SDS011;10719;48.130;11.630;2023-09-18T13:59:51;5.20;;;1.55;;
21122;SDS011;10719;48.130;11.630;2023-09-18T14:02:17;4.82;;;1.50;;
21122;SDS011;10719;48.130;11.630;2023-09-18T14:04:44;4.13;;;1.05;;
21122;SDS011;10719;48.130;11.630;2023-09-18T14:07:10;3.05;;;1.08;;
21122;SDS011;10719;48.130;11.630;2023-09-18T14:09:37;4.22;;;1.40;;
21122;SDS011;10719;48.130;11.630;2023-09-18T14:12:04;3.78;;;1.02;;
21122;SDS011;10719;48.130;11.630;2023-09-18T14:14:33;2.60;;;0.98;;
21122;SDS011;10719;48.130;11.630;2023-09-18T14:17:00;5.68;;;1.13;;
21122;SDS011;10719;48.130;11.630;2023-09-18T14:19:26;3.72;;;1.33;;
21122;SDS011;10719;48.130;11.630;2023-09-18T14:21:51;2.10;;;0.95;;
21122;SDS011;10719;48.130;11.630;2023-09-18T14:24:18;3.90;;;1.15;;
21122;SDS011;10719;48.130;11.630;2023-09-18T14:26:50;3.53;;;1.25;;
21122;SDS011;10719;48.130;11.630;2023-09-18T14:29:16;6.75;;;1.40;;
21122;SDS011;10719;48.130;11.630;2023-09-18T14:31:42;1.92;;;0.90;;
21122;SDS011;10719;48.130;11.630;2023-09-18T14:34:09;1.35;;;0.60;;
21122;SDS011;10719;48.130;11.630;2023-09-18T14:36:35;1.92;;;0.90;;
21122;SDS011;10719;48.130;11.630;2023-09-18T14:39:01;1.42;;;0.80;;
21122;SDS011;10719;48.130;11.630;2023-09-18T14:41:28;3.10;;;0.88;;
21122;SDS011;10719;48.130;11.630;2023-09-18T14:43:54;3.03;;;1.10;;
21122;SDS011;10719;48.130;11.630;2023-09-18T14:46:22;7.15;;;1.17;;
21122;SDS011;10719;48.130;11.630;2023-09-18T14:48:48;3.38;;;1.25;;
21122;SDS011;10719;48.130;11.630;2023-09-18T14:51:14;6.75;;;0.98;;
21122;SDS011;10719;48.130;11.630;2023-09-18T14:53:39;4.45;;;1.02;;
21122;SDS011;10719;48.130;11.630;2023-09-18T14:56:05;2.13;;;0.85;;